Time,TemperatureF,DewpointF,PressureIn,WindDirection,WindDirectionDegrees,WindSpeedMPH,WindSpeedGustMPH,Humidity,HourlyPrecipIn,Conditions,Clouds,dailyrainin,SoftwareType,DateUTC
2013-01-19 00:00:00,37.7,31.8,30.51,NE,47,3.0,4.0,79,0.00,,SKC,0.01,VWS V13.00,2013-01-19 05:00:00,
2013-01-19 00:03:00,37.6,31.7,30.52,ENE,73,1.0,7.0,79,0.00,,SKC,0.00,VWS V13.00,2013-01-19 05:03:00,
2013-01-19 00:08:00,37.4,31.5,30.52,ENE,59,3.0,4.0,79,0.00,,SKC,0.00,VWS V13.00,2013-01-19 05:08:00,
2013-01-19 00:13:00,37.3,31.4,30.51,ENE,63,2.0,5.0,79,0.00,,SKC,0.00,VWS V13.00,2013-01-19 05:13:00,
2013-01-19 00:18:00,37.1,31.2,30.52,NE,54,2.0,4.0,79,0.00,,SKC,0.00,VWS V13.00,2013-01-19 05:18:00,
2013-01-19 00:23:00,37.0,31.1,30.52,NNE,33,0.0,3.0,79,0.00,,SKC,0.00,VWS V13.00,2013-01-19 05:23:00,
2013-01-19 00:28:00,36.8,30.9,30.52,North,360,2.0,4.0,79,0.00,,SKC,0.00,VWS V13.00,2013-01-19 05:28:00,
2013-01-19 00:33:00,36.6,30.7,30.52,North,360,1.0,3.0,79,0.00,,SKC,0.00,VWS V13.00,2013-01-19 05:33:00,
2013-01-19 00:38:00,36.5,30.6,30.52,NNE,14,3.0,5.0,79,0.00,,SKC,0.00,VWS V13.00,2013-01-19 05:38:00,
2013-01-19 00:43:00,36.3,30.4,30.52,North,5,1.0,3.0,79,0.00,,SKC,0.00,VWS V13.00,2013-01-19 05:43:00,
2013-01-19 00:48:00,36.1,30.2,30.52,North,5,1.0,3.0,79,0.00,,SKC,0.00,VWS V13.00,2013-01-19 05:48:00,
2013-01-19 00:53:00,35.9,30.0,30.51,North,355,3.0,3.0,79,0.00,,SKC,0.00,VWS V13.00,2013-01-19 05:53:00,
2013-01-19 00:58:00,35.6,29.7,30.51,North,5,1.0,3.0,79,0.00,,SKC,0.00,VWS V13.00,2013-01-19 05:58:00,
2013-01-19 01:03:00,35.5,29.6,30.51,NNW,342,3.0,5.0,79,0.00,,SKC,0.00,VWS V13.00,2013-01-19 06:03:00,
2013-01-19 01:08:00,35.4,29.5,30.51,North,5,3.0,5.0,79,0.00,,SKC,0.00,VWS V13.00,2013-01-19 06:08:00,
2013-01-19 01:13:00,35.4,29.5,30.51,NNW,344,4.0,6.0,79,0.00,,SKC,0.00,VWS V13.00,2013-01-19 06:13:00,
2013-01-19 01:18:00,35.5,29.6,30.51,NNW,338,0.0,5.0,79,0.00,,SKC,0.00,VWS V13.00,2013-01-19 06:18:00,
2013-01-19 01:23:00,35.5,29.6,30.51,NNW,336,3.0,5.0,79,0.00,,SKC,0.00,VWS V13.00,2013-01-19 06:23:00,
2013-01-19 01:28:00,35.5,29.6,30.51,NNW,330,5.0,5.0,79,0.00,,SKC,0.00,VWS V13.00,2013-01-19 06:28:00,
2013-01-19 01:33:00,35.4,29.5,30.51,North,355,2.0,6.0,79,0.00,,SKC,0.00,VWS V13.00,2013-01-19 06:33:00,
2013-01-19 01:38:00,35.4,29.5,30.51,NNW,348,6.0,6.0,79,0.00,,SKC,0.00,VWS V13.00,2013-01-19 06:38:00,
2013-01-19 01:43:00,35.3,29.5,30.51,NNW,338,2.0,7.0,79,0.00,,SKC,0.00,VWS V13.00,2013-01-19 06:43:00,
2013-01-19 01:48:00,35.2,29.4,30.51,NNE,12,6.0,7.0,79,0.00,,SKC,0.00,VWS V13.00,2013-01-19 06:48:00,
2013-01-19 01:53:00,35.2,29.4,30.51,NNE,19,4.0,8.0,79,0.00,,SKC,0.00,VWS V13.00,2013-01-19 06:53:00,
2013-01-19 01:58:00,35.2,29.4,30.51,NNE,15,4.0,8.0,79,0.00,,SKC,0.00,VWS V13.00,2013-01-19 06:58:00,
2013-01-19 02:03:00,35.1,29.3,30.50,North,355,2.0,7.0,79,0.00,,SKC,0.00,VWS V13.00,2013-01-19 07:03:00,
2013-01-19 02:08:00,35.0,29.2,30.50,North,5,1.0,5.0,79,0.00,,SKC,0.00,VWS V13.00,2013-01-19 07:08:00,
2013-01-19 02:13:00,34.9,29.1,30.50,North,350,5.0,7.0,79,0.00,,SKC,0.00,VWS V13.00,2013-01-19 07:13:00,
2013-01-19 02:18:00,34.9,29.4,30.50,North,10,5.0,8.0,80,0.00,,SKC,0.00,VWS V13.00,2013-01-19 07:18:00,
2013-01-19 02:23:00,34.9,29.4,30.50,North,360,2.0,8.0,80,0.00,,SKC,0.00,VWS V13.00,2013-01-19 07:23:00,
2013-01-19 02:28:00,35.0,29.5,30.50,NNW,327,5.0,6.0,80,0.00,,SKC,0.00,VWS V13.00,2013-01-19 07:28:00,
2013-01-19 02:33:00,35.0,29.5,30.50,North,360,0.0,6.0,80,0.00,,SKC,0.00,VWS V13.00,2013-01-19 07:33:00,
2013-01-19 02:38:00,35.0,29.5,30.50,NNE,14,3.0,6.0,80,0.00,,SKC,0.00,VWS V13.00,2013-01-19 07:38:00,
2013-01-19 02:43:00,35.0,29.5,30.50,NNE,32,1.0,5.0,80,0.00,,SKC,0.00,VWS V13.00,2013-01-19 07:43:00,
2013-01-19 02:48:00,34.9,29.4,30.50,NNW,334,3.0,5.0,80,0.00,,SKC,0.00,VWS V13.00,2013-01-19 07:48:00,
2013-01-19 02:53:00,34.8,29.0,30.50,North,355,5.0,6.0,79,0.00,,SKC,0.00,VWS V13.00,2013-01-19 07:53:00,
2013-01-19 02:58:00,34.7,29.2,30.50,North,9,2.0,6.0,80,0.00,,SKC,0.00,VWS V13.00,2013-01-19 07:58:00,
2013-01-19 03:03:00,34.7,29.2,30.50,NNW,329,3.0,6.0,80,0.00,,SKC,0.00,VWS V13.00,2013-01-19 08:03:00,
2013-01-19 03:08:00,34.6,29.1,30.50,North,11,4.0,6.0,80,0.00,,SKC,0.00,VWS V13.00,2013-01-19 08:08:00,
2013-01-19 03:13:00,34.6,29.1,30.50,NNE,13,2.0,8.0,80,0.00,,SKC,0.00,VWS V13.00,2013-01-19 08:13:00,
2013-01-19 03:18:00,34.6,29.1,30.50,NNE,25,3.0,7.0,80,0.00,,SKC,0.00,VWS V13.00,2013-01-19 08:18:00,
2013-01-19 03:23:00,34.6,29.1,30.50,North,355,6.0,6.0,80,0.00,,SKC,0.00,VWS V13.00,2013-01-19 08:23:00,
2013-01-19 03:28:00,34.7,29.2,30.50,NNW,347,2.0,6.0,80,0.00,,SKC,0.00,VWS V13.00,2013-01-19 08:28:00,
2013-01-19 03:33:00,34.7,29.2,30.49,NW,321,3.0,6.0,80,0.00,,SKC,0.00,VWS V13.00,2013-01-19 08:33:00,
2013-01-19 03:38:00,34.7,29.2,30.49,North,5,4.0,6.0,80,0.00,,SKC,0.00,VWS V13.00,2013-01-19 08:38:00,
2013-01-19 03:43:00,34.7,29.2,30.49,NNE,23,3.0,5.0,80,0.00,,SKC,0.00,VWS V13.00,2013-01-19 08:43:00,
2013-01-19 03:48:00,34.6,29.1,30.49,North,351,0.0,7.0,80,0.00,,SKC,0.00,VWS V13.00,2013-01-19 08:48:00,
2013-01-19 03:53:00,34.6,29.1,30.49,North,11,4.0,5.0,80,0.00,,SKC,0.00,VWS V13.00,2013-01-19 08:53:00,
2013-01-19 03:58:00,34.5,29.0,30.49,North,360,6.0,7.0,80,0.00,,SKC,0.00,VWS V13.00,2013-01-19 08:58:00,
2013-01-19 04:03:00,34.4,28.9,30.49,North,5,3.0,4.0,80,0.00,,SKC,0.00,VWS V13.00,2013-01-19 09:03:00,
2013-01-19 04:08:00,34.4,28.9,30.49,North,5,3.0,6.0,80,0.00,,SKC,0.00,VWS V13.00,2013-01-19 09:08:00,
2013-01-19 04:13:00,34.4,28.9,30.49,NNE,13,4.0,5.0,80,0.00,,SKC,0.00,VWS V13.00,2013-01-19 09:13:00,
2013-01-19 04:18:00,34.4,28.9,30.48,North,360,1.0,5.0,80,0.00,,SKC,0.00,VWS V13.00,2013-01-19 09:18:00,
2013-01-19 04:23:00,34.4,28.9,30.49,NNE,15,6.0,6.0,80,0.00,,SKC,0.00,VWS V13.00,2013-01-19 09:23:00,
2013-01-19 04:28:00,34.4,28.9,30.49,North,355,3.0,5.0,80,0.00,,SKC,0.00,VWS V13.00,2013-01-19 09:28:00,
2013-01-19 04:33:00,34.4,28.9,30.48,North,355,4.0,5.0,80,0.00,,SKC,0.00,VWS V13.00,2013-01-19 09:33:00,
2013-01-19 04:38:00,34.4,28.9,30.48,NNE,19,4.0,4.0,80,0.00,,SKC,0.00,VWS V13.00,2013-01-19 09:38:00,
2013-01-19 04:43:00,34.3,28.8,30.48,NNE,20,3.0,7.0,80,0.00,,SKC,0.00,VWS V13.00,2013-01-19 09:43:00,
2013-01-19 04:48:00,34.3,28.8,30.48,North,10,1.0,8.0,80,0.00,,SKC,0.00,VWS V13.00,2013-01-19 09:48:00,
2013-01-19 04:53:00,34.3,28.8,30.48,NNE,22,0.0,5.0,80,0.00,,SKC,0.00,VWS V13.00,2013-01-19 09:53:00,
2013-01-19 04:58:00,34.3,28.8,30.48,North,5,3.0,4.0,80,0.00,,SKC,0.00,VWS V13.00,2013-01-19 09:58:00,
2013-01-19 05:03:00,34.2,28.7,30.48,North,11,2.0,4.0,80,0.00,,SKC,0.00,VWS V13.00,2013-01-19 10:03:00,
2013-01-19 05:08:00,34.1,28.6,30.48,NNW,334,4.0,7.0,80,0.00,,SKC,0.00,VWS V13.00,2013-01-19 10:08:00,
2013-01-19 05:13:00,34.1,28.6,30.48,NNE,17,2.0,5.0,80,0.00,,SKC,0.00,VWS V13.00,2013-01-19 10:13:00,
2013-01-19 05:18:00,34.1,28.6,30.48,NNE,17,4.0,5.0,80,0.00,,SKC,0.00,VWS V13.00,2013-01-19 10:18:00,
2013-01-19 05:23:00,34.1,28.6,30.49,NNE,12,2.0,3.0,80,0.00,,SKC,0.00,VWS V13.00,2013-01-19 10:23:00,
2013-01-19 05:28:00,34.0,28.5,30.49,North,5,5.0,7.0,80,0.00,,SKC,0.00,VWS V13.00,2013-01-19 10:28:00,
2013-01-19 05:33:00,34.0,28.5,30.49,NNE,14,3.0,5.0,80,0.00,,SKC,0.00,VWS V13.00,2013-01-19 10:33:00,
2013-01-19 05:38:00,33.9,28.4,30.49,NNE,16,5.0,6.0,80,0.00,,SKC,0.00,VWS V13.00,2013-01-19 10:38:00,
2013-01-19 05:43:00,34.0,28.5,30.49,North,360,3.0,6.0,80,0.00,,SKC,0.00,VWS V13.00,2013-01-19 10:43:00,
2013-01-19 05:48:00,34.0,28.5,30.49,NNE,26,4.0,6.0,80,0.00,,SKC,0.00,VWS V13.00,2013-01-19 10:48:00,
2013-01-19 05:53:00,34.1,28.6,30.49,North,5,1.0,4.0,80,0.00,,SKC,0.00,VWS V13.00,2013-01-19 10:53:00,
2013-01-19 05:58:00,34.1,28.6,30.49,North,5,4.0,5.0,80,0.00,,SKC,0.00,VWS V13.00,2013-01-19 10:58:00,
2013-01-19 06:03:00,34.0,28.5,30.48,North,360,6.0,6.0,80,0.00,,SKC,0.00,VWS V13.00,2013-01-19 11:03:00,
2013-01-19 06:08:00,34.0,28.5,30.48,NNE,17,4.0,5.0,80,0.00,,SKC,0.00,VWS V13.00,2013-01-19 11:08:00,
2013-01-19 06:13:00,34.0,28.5,30.48,North,5,5.0,8.0,80,0.00,,SKC,0.00,VWS V13.00,2013-01-19 11:13:00,
2013-01-19 07:47:00,35.0,29.5,30.48,North,360,3.0,3.0,80,0.00,,SKC,0.00,VWS V13.00,2013-01-19 12:47:00,
2013-01-19 07:48:00,35.1,29.6,30.48,NE,34,3.0,4.0,80,0.00,,SKC,0.00,VWS V13.00,2013-01-19 12:48:00,
2013-01-19 07:53:00,35.2,29.7,30.49,NNE,15,3.0,7.0,80,0.00,,SKC,0.00,VWS V13.00,2013-01-19 12:53:00,
2013-01-19 07:58:00,35.4,30.2,30.49,NNE,18,6.0,8.0,81,0.00,,SKC,0.00,VWS V13.00,2013-01-19 12:58:00,
2013-01-19 08:03:00,35.7,30.5,30.48,North,5,5.0,8.0,81,0.00,,SKC,0.00,VWS V13.00,2013-01-19 13:03:00,
2013-01-19 08:08:00,36.0,30.4,30.48,North,9,6.0,9.0,80,0.00,,SKC,0.00,VWS V13.00,2013-01-19 13:08:00,
2013-01-19 08:13:00,36.3,31.0,30.48,North,11,3.0,7.0,81,0.00,,SKC,0.00,VWS V13.00,2013-01-19 13:13:00,
2013-01-19 08:18:00,36.6,31.0,30.48,NE,55,7.0,9.0,80,0.00,,SKC,0.00,VWS V13.00,2013-01-19 13:18:00,
2013-01-19 08:23:00,36.8,31.2,30.48,NNE,13,6.0,10.0,80,0.00,,SKC,0.00,VWS V13.00,2013-01-19 13:23:00,
2013-01-19 08:28:00,37.1,31.5,30.48,North,5,4.0,8.0,80,0.00,,SKC,0.00,VWS V13.00,2013-01-19 13:28:00,
2013-01-19 08:33:00,37.6,32.0,30.48,North,5,5.0,6.0,80,0.00,,SKC,0.00,VWS V13.00,2013-01-19 13:33:00,
2013-01-19 08:38:00,38.0,32.4,30.48,NNE,14,4.0,11.0,80,0.00,,SKC,0.00,VWS V13.00,2013-01-19 13:38:00,
2013-01-19 08:43:00,38.4,32.8,30.49,NNE,29,3.0,6.0,80,0.00,,SKC,0.00,VWS V13.00,2013-01-19 13:43:00,
2013-01-19 08:48:00,38.8,33.2,30.49,North,5,5.0,8.0,80,0.00,,SKC,0.00,VWS V13.00,2013-01-19 13:48:00,
2013-01-19 08:53:00,39.1,33.2,30.49,North,355,4.0,8.0,79,0.00,,SKC,0.00,VWS V13.00,2013-01-19 13:53:00,
2013-01-19 08:58:00,39.5,33.8,30.49,NNE,15,5.0,9.0,80,0.00,,SKC,0.00,VWS V13.00,2013-01-19 13:58:00,
2013-01-19 09:03:00,40.0,34.0,30.49,NNE,30,4.0,4.0,79,0.00,,SKC,0.00,VWS V13.00,2013-01-19 14:03:00,
2013-01-19 09:08:00,40.5,34.5,30.49,NNE,31,5.0,6.0,79,0.00,,SKC,0.00,VWS V13.00,2013-01-19 14:08:00,
2013-01-19 09:13:00,40.8,34.8,30.50,NNW,348,6.0,8.0,79,0.00,,SKC,0.00,VWS V13.00,2013-01-19 14:13:00,
2013-01-19 09:18:00,41.1,35.1,30.49,NNW,345,4.0,6.0,79,0.00,,SKC,0.00,VWS V13.00,2013-01-19 14:18:00,
2013-01-19 09:23:00,41.5,35.5,30.49,North,360,6.0,9.0,79,0.00,,SKC,0.00,VWS V13.00,2013-01-19 14:23:00,
2013-01-19 09:28:00,42.1,36.1,30.50,North,355,5.0,6.0,79,0.00,,SKC,0.00,VWS V13.00,2013-01-19 14:28:00,
2013-01-19 09:34:00,42.7,36.7,30.50,North,360,4.0,6.0,79,0.00,,SKC,0.00,VWS V13.00,2013-01-19 14:34:00,
2013-01-19 09:39:00,43.0,36.6,30.50,North,360,4.0,7.0,78,0.00,,SKC,0.00,VWS V13.00,2013-01-19 14:39:00,
2013-01-19 09:44:00,43.4,37.0,30.50,North,360,0.0,5.0,78,0.00,,SKC,0.00,VWS V13.00,2013-01-19 14:44:00,
2013-01-19 09:49:00,43.9,37.5,30.50,North,5,5.0,5.0,78,0.00,,SKC,0.00,VWS V13.00,2013-01-19 14:49:00,
2013-01-19 09:54:00,44.4,38.0,30.50,North,360,3.0,7.0,78,0.00,,SKC,0.00,VWS V13.00,2013-01-19 14:54:00,
2013-01-19 09:59:00,45.0,38.6,30.50,NNE,22,2.0,6.0,78,0.00,,SKC,0.00,VWS V13.00,2013-01-19 14:59:00,
2013-01-19 10:04:00,45.2,38.8,30.50,NNE,22,0.0,4.0,78,0.00,,SKC,0.00,VWS V13.00,2013-01-19 15:04:00,
2013-01-19 10:09:00,45.5,39.0,30.50,NW,325,1.0,5.0,78,0.00,,SKC,0.00,VWS V13.00,2013-01-19 15:09:00,
2013-01-19 10:14:00,45.8,39.3,30.50,North,9,5.0,5.0,78,0.00,,SKC,0.00,VWS V13.00,2013-01-19 15:14:00,
2013-01-19 10:19:00,45.7,38.9,30.50,North,360,1.0,3.0,77,0.00,,SKC,0.00,VWS V13.00,2013-01-19 15:19:00,
2013-01-19 10:24:00,46.0,39.5,30.49,NNE,24,0.0,1.0,78,0.00,,SKC,0.00,VWS V13.00,2013-01-19 15:24:00,
2013-01-19 10:29:00,46.6,40.1,30.49,NNE,28,4.0,5.0,78,0.00,,SKC,0.00,VWS V13.00,2013-01-19 15:29:00,
2013-01-19 10:34:00,47.4,40.9,30.49,NE,35,0.0,6.0,78,0.00,,SKC,0.00,VWS V13.00,2013-01-19 15:34:00,
2013-01-19 10:39:00,48.3,41.4,30.49,North,11,5.0,7.0,77,0.00,,SKC,0.00,VWS V13.00,2013-01-19 15:39:00,
2013-01-19 10:44:00,48.4,41.5,30.48,North,9,6.0,6.0,77,0.00,,SKC,0.00,VWS V13.00,2013-01-19 15:44:00,
2013-01-19 10:49:00,48.5,41.6,30.48,NNW,339,2.0,7.0,77,0.00,,SKC,0.00,VWS V13.00,2013-01-19 15:49:00,
2013-01-19 10:54:00,48.8,41.9,30.48,NNW,327,4.0,6.0,77,0.00,,SKC,0.00,VWS V13.00,2013-01-19 15:54:00,
2013-01-19 10:59:00,49.0,42.1,30.47,NW,323,2.0,4.0,77,0.00,,SKC,0.00,VWS V13.00,2013-01-19 15:59:00,
2013-01-19 11:04:00,49.3,42.4,30.47,NW,321,3.0,6.0,77,0.00,,SKC,0.00,VWS V13.00,2013-01-19 16:04:00,
2013-01-19 11:09:00,49.7,42.8,30.47,North,5,1.0,5.0,77,0.00,,SKC,0.00,VWS V13.00,2013-01-19 16:09:00,
2013-01-19 11:14:00,50.2,43.3,30.46,NNW,340,4.0,6.0,77,0.00,,SKC,0.00,VWS V13.00,2013-01-19 16:14:00,
2013-01-19 11:19:00,50.8,43.9,30.46,NNE,12,5.0,6.0,77,0.00,,SKC,0.00,VWS V13.00,2013-01-19 16:19:00,
2013-01-19 11:24:00,51.3,44.0,30.45,NNW,344,3.0,6.0,76,0.00,,SKC,0.00,VWS V13.00,2013-01-19 16:24:00,
2013-01-19 11:29:00,51.7,44.4,30.45,NNW,339,5.0,6.0,76,0.00,,SKC,0.00,VWS V13.00,2013-01-19 16:29:00,
2013-01-19 11:34:00,52.0,44.7,30.45,NW,317,1.0,4.0,76,0.00,,SKC,0.00,VWS V13.00,2013-01-19 16:34:00,
2013-01-19 11:39:00,52.6,45.3,30.44,WNW,296,3.0,4.0,76,0.00,,SKC,0.00,VWS V13.00,2013-01-19 16:39:00,
2013-01-19 11:44:00,53.2,45.8,30.44,WNW,300,4.0,5.0,76,0.00,,SKC,0.00,VWS V13.00,2013-01-19 16:44:00,
2013-01-19 11:49:00,53.8,46.4,30.43,WNW,286,4.0,5.0,76,0.00,,SKC,0.00,VWS V13.00,2013-01-19 16:49:00,
2013-01-19 11:54:00,53.9,46.2,30.43,NNW,347,0.0,7.0,75,0.00,,SKC,0.00,VWS V13.00,2013-01-19 16:54:00,
2013-01-19 11:59:00,53.9,46.2,30.42,NW,319,3.0,3.0,75,0.00,,SKC,0.00,VWS V13.00,2013-01-19 16:59:00,
2013-01-19 12:04:00,54.4,46.7,30.42,North,355,2.0,4.0,75,0.00,,SKC,0.00,VWS V13.00,2013-01-19 17:04:00,
2013-01-19 12:09:00,55.0,47.2,30.41,NNW,333,4.0,7.0,75,0.00,,SKC,0.00,VWS V13.00,2013-01-19 17:09:00,
2013-01-19 12:14:00,55.4,47.6,30.41,NNE,17,2.0,6.0,75,0.00,,SKC,0.00,VWS V13.00,2013-01-19 17:14:00,
2013-01-19 12:19:00,55.6,47.8,30.40,West,281,2.0,5.0,75,0.00,,SKC,0.00,VWS V13.00,2013-01-19 17:19:00,
2013-01-19 12:25:00,55.7,47.5,30.40,NW,326,0.0,5.0,74,0.00,,SKC,0.00,VWS V13.00,2013-01-19 17:25:00,
2013-01-19 12:30:00,55.9,47.7,30.40,NNW,335,3.0,5.0,74,0.00,,SKC,0.00,VWS V13.00,2013-01-19 17:30:00,
2013-01-19 12:35:00,55.9,47.7,30.39,NNW,330,0.0,5.0,74,0.00,,SKC,0.00,VWS V13.00,2013-01-19 17:35:00,
2013-01-19 12:40:00,56.5,48.3,30.39,NW,319,0.0,6.0,74,0.00,,SKC,0.00,VWS V13.00,2013-01-19 17:40:00,
2013-01-19 12:45:00,56.9,48.7,30.38,WNW,290,2.0,5.0,74,0.00,,SKC,0.00,VWS V13.00,2013-01-19 17:45:00,
2013-01-19 12:50:00,56.9,48.7,30.38,West,281,3.0,5.0,74,0.00,,SKC,0.00,VWS V13.00,2013-01-19 17:50:00,
2013-01-19 12:55:00,57.1,48.9,30.38,North,355,0.0,3.0,74,0.00,,SKC,0.00,VWS V13.00,2013-01-19 17:55:00,
2013-01-19 13:00:00,57.2,49.0,30.37,NW,315,0.0,4.0,74,0.00,,SKC,0.00,VWS V13.00,2013-01-19 18:00:00,
2013-01-19 13:06:00,58.0,49.4,30.37,NE,53,0.0,5.0,73,0.00,,SKC,0.00,VWS V13.00,2013-01-19 18:06:00,
2013-01-19 13:11:00,58.2,49.6,30.36,NNW,348,2.0,9.0,73,0.00,,SKC,0.00,VWS V13.00,2013-01-19 18:11:00,
2013-01-19 13:17:00,58.2,49.6,30.36,NNW,341,1.0,3.0,73,0.00,,SKC,0.00,VWS V13.00,2013-01-19 18:17:00,
2013-01-19 13:22:00,58.1,49.5,30.36,NNE,30,2.0,5.0,73,0.00,,SKC,0.00,VWS V13.00,2013-01-19 18:22:00,
2013-01-19 13:28:00,58.0,49.4,30.35,NW,311,4.0,5.0,73,0.00,,SKC,0.00,VWS V13.00,2013-01-19 18:28:00,
2013-01-19 13:33:00,57.9,49.3,30.35,WNW,292,4.0,6.0,73,0.00,,SKC,0.00,VWS V13.00,2013-01-19 18:33:00,
2013-01-19 13:38:00,58.2,49.6,30.35,WNW,296,5.0,5.0,73,0.00,,SKC,0.00,VWS V13.00,2013-01-19 18:38:00,
2013-01-19 13:43:00,58.5,49.9,30.35,WNW,282,1.0,6.0,73,0.00,,SKC,0.00,VWS V13.00,2013-01-19 18:43:00,
2013-01-19 13:49:00,58.5,49.9,30.35,NW,313,2.0,6.0,73,0.00,,SKC,0.00,VWS V13.00,2013-01-19 18:49:00,
2013-01-19 13:54:00,58.4,49.8,30.34,NW,316,2.0,6.0,73,0.00,,SKC,0.00,VWS V13.00,2013-01-19 18:54:00,
2013-01-19 13:59:00,58.6,50.0,30.34,NW,326,3.0,7.0,73,0.00,,SKC,0.00,VWS V13.00,2013-01-19 18:59:00,
2013-01-19 14:04:00,59.0,50.4,30.34,NNW,334,0.0,7.0,73,0.00,,SKC,0.00,VWS V13.00,2013-01-19 19:04:00,
2013-01-19 14:09:00,59.5,50.5,30.33,NW,309,4.0,8.0,72,0.00,,SKC,0.00,VWS V13.00,2013-01-19 19:09:00,
2013-01-19 14:14:00,59.6,50.2,30.33,WNW,300,3.0,8.0,71,0.00,,SKC,0.00,VWS V13.00,2013-01-19 19:14:00,
2013-01-19 14:20:00,59.6,50.2,30.33,WNW,292,2.0,8.0,71,0.00,,SKC,0.00,VWS V13.00,2013-01-19 19:20:00,
2013-01-19 14:25:00,59.7,50.3,30.33,NNW,330,2.0,6.0,71,0.00,,SKC,0.00,VWS V13.00,2013-01-19 19:25:00,
2013-01-19 14:30:00,59.5,50.1,30.32,NW,315,3.0,6.0,71,0.00,,SKC,0.00,VWS V13.00,2013-01-19 19:30:00,
2013-01-19 14:35:00,59.4,50.4,30.32,NW,309,0.0,4.0,72,0.00,,SKC,0.00,VWS V13.00,2013-01-19 19:35:00,
2013-01-19 14:40:00,59.7,50.7,30.32,WNW,302,1.0,4.0,72,0.00,,SKC,0.00,VWS V13.00,2013-01-19 19:40:00,
2013-01-19 14:45:00,59.9,50.9,30.32,West,279,2.0,3.0,72,0.00,,SKC,0.00,VWS V13.00,2013-01-19 19:45:00,
2013-01-19 14:50:00,59.9,50.5,30.32,ENE,74,3.0,5.0,71,0.00,,SKC,0.00,VWS V13.00,2013-01-19 19:50:00,
2013-01-19 14:56:00,59.8,50.4,30.32,SE,136,5.0,11.0,71,0.00,,SKC,0.00,VWS V13.00,2013-01-19 19:56:00,
2013-01-19 15:01:00,59.3,50.3,30.32,SE,130,6.0,8.0,72,0.00,,SKC,0.00,VWS V13.00,2013-01-19 20:01:00,
2013-01-19 15:06:00,58.7,49.7,30.31,SSE,161,4.0,4.0,72,0.00,,SKC,0.00,VWS V13.00,2013-01-19 20:06:00,
2013-01-19 15:12:00,57.8,48.8,30.31,SE,137,7.0,7.0,72,0.00,,SKC,0.00,VWS V13.00,2013-01-19 20:12:00,
2013-01-19 15:17:00,57.1,48.2,30.31,SSE,167,5.0,9.0,72,0.00,,SKC,0.00,VWS V13.00,2013-01-19 20:17:00,
2013-01-19 15:22:00,56.8,47.9,30.31,SE,130,2.0,5.0,72,0.00,,SKC,0.00,VWS V13.00,2013-01-19 20:22:00,
2013-01-19 15:28:00,56.7,48.2,30.31,ESE,121,2.0,7.0,73,0.00,,SKC,0.00,VWS V13.00,2013-01-19 20:28:00,
2013-01-19 15:33:00,56.6,48.1,30.31,SE,142,4.0,6.0,73,0.00,,SKC,0.00,VWS V13.00,2013-01-19 20:33:00,
2013-01-19 15:38:00,56.3,47.4,30.31,SSE,153,0.0,7.0,72,0.00,,SKC,0.00,VWS V13.00,2013-01-19 20:38:00,
2013-01-19 15:43:00,56.0,47.5,30.31,ESE,120,4.0,8.0,73,0.00,,SKC,0.00,VWS V13.00,2013-01-19 20:43:00,
2013-01-19 15:48:00,55.9,47.4,30.30,SSE,164,1.0,5.0,73,0.00,,SKC,0.00,VWS V13.00,2013-01-19 20:48:00,
2013-01-19 15:53:00,55.8,47.3,30.30,SE,144,2.0,5.0,73,0.00,,SKC,0.00,VWS V13.00,2013-01-19 20:53:00,
2013-01-19 15:58:00,55.7,47.2,30.30,South,174,6.0,7.0,73,0.00,,SKC,0.00,VWS V13.00,2013-01-19 20:58:00,
2013-01-19 16:03:00,55.5,47.0,30.30,SE,144,5.0,7.0,73,0.00,,SKC,0.00,VWS V13.00,2013-01-19 21:03:00,
2013-01-19 16:08:00,55.3,46.8,30.30,SSE,160,2.0,7.0,73,0.00,,SKC,0.00,VWS V13.00,2013-01-19 21:08:00,
2013-01-19 16:13:00,55.0,46.5,30.30,SSE,162,2.0,6.0,73,0.00,,SKC,0.00,VWS V13.00,2013-01-19 21:13:00,
2013-01-19 16:19:00,55.0,46.5,30.30,South,186,2.0,7.0,73,0.00,,SKC,0.00,VWS V13.00,2013-01-19 21:19:00,
2013-01-19 16:24:00,55.0,46.5,30.30,South,169,0.0,5.0,73,0.00,,SKC,0.00,VWS V13.00,2013-01-19 21:24:00,
2013-01-19 16:29:00,54.9,46.4,30.29,South,175,1.0,5.0,73,0.00,,SKC,0.00,VWS V13.00,2013-01-19 21:29:00,
2013-01-19 16:34:00,54.7,46.2,30.29,SSE,157,0.0,2.0,73,0.00,,SKC,0.00,VWS V13.00,2013-01-19 21:34:00,
2013-01-19 16:39:00,54.6,46.5,30.29,SSE,159,4.0,5.0,74,0.00,,SKC,0.00,VWS V13.00,2013-01-19 21:39:00,
2013-01-19 16:46:00,54.4,46.3,30.29,South,178,2.0,5.0,74,0.00,,SKC,0.00,VWS V13.00,2013-01-19 21:46:00,
2013-01-19 16:51:00,54.2,46.1,30.28,South,178,0.0,2.0,74,0.00,,SKC,0.00,VWS V13.00,2013-01-19 21:51:00,
2013-01-19 16:57:00,54.0,45.9,30.28,South,182,3.0,3.0,74,0.00,,SKC,0.00,VWS V13.00,2013-01-19 21:57:00,
2013-01-19 17:02:00,53.8,45.7,30.28,South,175,0.0,0.0,74,0.00,,SKC,0.00,VWS V13.00,2013-01-19 22:02:00,
2013-01-19 17:07:00,53.7,45.6,30.28,South,175,1.0,4.0,74,0.00,,SKC,0.00,VWS V13.00,2013-01-19 22:07:00,
2013-01-19 17:13:00,53.4,45.3,30.28,South,175,1.0,2.0,74,0.00,,SKC,0.00,VWS V13.00,2013-01-19 22:13:00,
2013-01-19 17:18:00,53.2,45.1,30.28,South,175,0.0,0.0,74,0.00,,SKC,0.00,VWS V13.00,2013-01-19 22:18:00,
2013-01-19 17:23:00,53.0,45.0,30.28,South,175,0.0,2.0,74,0.00,,SKC,0.00,VWS V13.00,2013-01-19 22:23:00,
2013-01-19 17:28:00,52.7,44.7,30.28,South,175,0.0,0.0,74,0.00,,SKC,0.00,VWS V13.00,2013-01-19 22:28:00,
2013-01-19 17:33:00,52.3,44.3,30.28,South,175,0.0,0.0,74,0.00,,SKC,0.00,VWS V13.00,2013-01-19 22:33:00,
2013-01-19 17:38:00,52.0,44.0,30.28,South,175,0.0,0.0,74,0.00,,SKC,0.00,VWS V13.00,2013-01-19 22:38:00,
2013-01-19 17:44:00,51.6,43.6,30.27,South,175,0.0,0.0,74,0.00,,SKC,0.00,VWS V13.00,2013-01-19 22:44:00,
2013-01-19 17:49:00,51.2,43.2,30.28,South,175,0.0,0.0,74,0.00,,SKC,0.00,VWS V13.00,2013-01-19 22:49:00,
2013-01-19 17:54:00,50.8,43.2,30.27,South,175,0.0,0.0,75,0.00,,SKC,0.00,VWS V13.00,2013-01-19 22:54:00,
2013-01-19 17:59:00,50.5,42.5,30.27,South,175,0.0,0.0,74,0.00,,SKC,0.00,VWS V13.00,2013-01-19 22:59:00,
2013-01-19 18:04:00,50.2,42.6,30.28,South,175,0.0,0.0,75,0.00,,SKC,0.00,VWS V13.00,2013-01-19 23:04:00,
2013-01-19 18:10:00,49.8,42.2,30.28,South,175,0.0,0.0,75,0.00,,SKC,0.00,VWS V13.00,2013-01-19 23:10:00,
2013-01-19 18:15:00,49.5,41.9,30.27,South,175,0.0,1.0,75,0.00,,SKC,0.00,VWS V13.00,2013-01-19 23:15:00,
2013-01-19 18:20:00,49.2,41.6,30.28,South,175,0.0,0.0,75,0.00,,SKC,0.00,VWS V13.00,2013-01-19 23:20:00,
2013-01-19 18:25:00,49.0,41.4,30.28,South,175,0.0,0.0,75,0.00,,SKC,0.00,VWS V13.00,2013-01-19 23:25:00,
2013-01-19 18:30:00,48.8,41.2,30.28,South,175,0.0,0.0,75,0.00,,SKC,0.00,VWS V13.00,2013-01-19 23:30:00,
2013-01-19 18:35:00,48.7,41.1,30.28,South,175,0.0,0.0,75,0.00,,SKC,0.00,VWS V13.00,2013-01-19 23:35:00,
2013-01-19 18:40:00,48.6,41.0,30.28,South,175,0.0,0.0,75,0.00,,SKC,0.00,VWS V13.00,2013-01-19 23:40:00,
2013-01-19 18:45:00,48.4,41.2,30.28,South,175,0.0,0.0,76,0.00,,SKC,0.00,VWS V13.00,2013-01-19 23:45:00,
2013-01-19 18:51:00,48.3,40.8,30.28,South,175,0.0,0.0,75,0.00,,SKC,0.00,VWS V13.00,2013-01-19 23:51:00,
2013-01-19 18:56:00,48.1,40.6,30.28,South,175,0.0,0.0,75,0.00,,SKC,0.00,VWS V13.00,2013-01-19 23:56:00,
2013-01-19 19:02:00,47.9,40.7,30.28,South,175,0.0,0.0,76,0.00,,SKC,0.00,VWS V13.00,2013-01-20 00:02:00,
2013-01-19 19:07:00,47.8,40.6,30.28,South,175,0.0,0.0,76,0.00,,SKC,0.00,VWS V13.00,2013-01-20 00:07:00,
2013-01-19 19:12:00,47.5,40.3,30.27,South,175,0.0,0.0,76,0.00,,SKC,0.00,VWS V13.00,2013-01-20 00:12:00,
2013-01-19 19:17:00,47.2,40.0,30.28,South,175,0.0,0.0,76,0.00,,SKC,0.00,VWS V13.00,2013-01-20 00:17:00,
2013-01-19 19:22:00,47.0,39.8,30.27,South,175,0.0,0.0,76,0.00,,SKC,0.00,VWS V13.00,2013-01-20 00:22:00,
2013-01-19 19:27:00,46.8,39.7,30.28,WNW,292,2.0,3.0,76,0.00,,SKC,0.00,VWS V13.00,2013-01-20 00:27:00,
2013-01-19 19:33:00,46.6,39.5,30.28,WNW,297,0.0,0.0,76,0.00,,SKC,0.00,VWS V13.00,2013-01-20 00:33:00,
2013-01-19 19:38:00,46.3,39.2,30.28,WNW,297,0.0,0.0,76,0.00,,SKC,0.00,VWS V13.00,2013-01-20 00:38:00,
2013-01-19 19:43:00,46.0,38.9,30.28,WNW,297,0.0,0.0,76,0.00,,SKC,0.00,VWS V13.00,2013-01-20 00:43:00,
2013-01-19 19:48:00,45.9,38.8,30.28,WNW,297,0.0,0.0,76,0.00,,SKC,0.00,VWS V13.00,2013-01-20 00:48:00,
2013-01-19 19:54:00,45.7,38.6,30.28,WNW,297,0.0,0.0,76,0.00,,SKC,0.00,VWS V13.00,2013-01-20 00:54:00,
2013-01-19 19:59:00,45.4,38.3,30.27,WNW,297,0.0,0.0,76,0.00,,SKC,0.00,VWS V13.00,2013-01-20 00:59:00,
2013-01-19 20:04:00,45.2,38.1,30.27,WNW,297,0.0,0.0,76,0.00,,SKC,0.00,VWS V13.00,2013-01-20 01:04:00,
2013-01-19 20:10:00,45.0,37.9,30.27,WNW,297,0.0,0.0,76,0.00,,SKC,0.00,VWS V13.00,2013-01-20 01:10:00,
2013-01-19 20:15:00,45.0,38.2,30.27,WNW,297,0.0,0.0,77,0.00,,SKC,0.00,VWS V13.00,2013-01-20 01:15:00,
2013-01-19 20:20:00,44.7,37.9,30.27,WNW,297,0.0,0.0,77,0.00,,SKC,0.00,VWS V13.00,2013-01-20 01:20:00,
2013-01-19 20:26:00,44.6,37.8,30.27,WNW,297,0.0,0.0,77,0.00,,SKC,0.00,VWS V13.00,2013-01-20 01:26:00,
2013-01-19 20:31:00,44.4,37.7,30.27,WNW,297,0.0,0.0,77,0.00,,SKC,0.00,VWS V13.00,2013-01-20 01:31:00,
2013-01-19 20:36:00,44.2,37.5,30.27,WNW,297,0.0,0.0,77,0.00,,SKC,0.00,VWS V13.00,2013-01-20 01:36:00,
2013-01-19 20:41:00,44.1,37.4,30.26,WNW,297,0.0,0.0,77,0.00,,SKC,0.00,VWS V13.00,2013-01-20 01:41:00,
2013-01-19 20:46:00,44.0,37.3,30.26,WNW,297,0.0,0.0,77,0.00,,SKC,0.00,VWS V13.00,2013-01-20 01:46:00,
2013-01-19 20:52:00,43.9,37.2,30.27,WNW,297,0.0,0.0,77,0.00,,SKC,0.00,VWS V13.00,2013-01-20 01:52:00,
2013-01-19 20:57:00,43.8,37.1,30.26,WNW,297,0.0,0.0,77,0.00,,SKC,0.00,VWS V13.00,2013-01-20 01:57:00,
2013-01-19 21:02:00,43.8,37.1,30.26,WNW,297,0.0,0.0,77,0.00,,SKC,0.00,VWS V13.00,2013-01-20 02:02:00,
2013-01-19 21:07:00,43.7,37.0,30.26,WNW,297,0.0,0.0,77,0.00,,SKC,0.00,VWS V13.00,2013-01-20 02:07:00,
2013-01-19 21:12:00,43.6,36.9,30.26,WNW,297,0.0,0.0,77,0.00,,SKC,0.00,VWS V13.00,2013-01-20 02:12:00,
2013-01-19 21:17:00,43.4,36.7,30.26,WNW,297,0.0,0.0,77,0.00,,SKC,0.00,VWS V13.00,2013-01-20 02:17:00,
2013-01-19 21:23:00,43.3,36.6,30.25,WNW,297,0.0,0.0,77,0.00,,SKC,0.00,VWS V13.00,2013-01-20 02:23:00,
2013-01-19 21:29:00,43.1,36.4,30.25,NE,42,0.0,0.0,77,0.00,,SKC,0.00,VWS V13.00,2013-01-20 02:29:00,
2013-01-19 21:34:00,43.0,36.6,30.25,ENE,63,1.0,2.0,78,0.00,,SKC,0.00,VWS V13.00,2013-01-20 02:34:00,
2013-01-19 21:39:00,42.9,36.5,30.25,ENE,63,0.0,2.0,78,0.00,,SKC,0.00,VWS V13.00,2013-01-20 02:39:00,
2013-01-19 21:44:00,42.8,36.4,30.25,ENE,63,0.0,0.0,78,0.00,,SKC,0.00,VWS V13.00,2013-01-20 02:44:00,
2013-01-19 21:49:00,42.7,36.3,30.25,ENE,65,1.0,2.0,78,0.00,,SKC,0.00,VWS V13.00,2013-01-20 02:49:00,
2013-01-19 21:54:00,42.7,36.3,30.25,ENE,65,0.0,1.0,78,0.00,,SKC,0.00,VWS V13.00,2013-01-20 02:54:00,
2013-01-19 22:00:00,42.8,36.4,30.25,ENE,65,0.0,0.0,78,0.00,,SKC,0.00,VWS V13.00,2013-01-20 03:00:00,
2013-01-19 22:05:00,42.7,36.3,30.24,ENE,65,0.0,0.0,78,0.00,,SKC,0.00,VWS V13.00,2013-01-20 03:05:00,
2013-01-19 22:10:00,42.6,36.2,30.24,ENE,65,0.0,0.0,78,0.00,,SKC,0.00,VWS V13.00,2013-01-20 03:10:00,
2013-01-19 22:15:00,42.6,36.2,30.24,ENE,65,0.0,0.0,78,0.00,,SKC,0.00,VWS V13.00,2013-01-20 03:15:00,
2013-01-19 22:20:00,42.6,36.2,30.24,ENE,65,0.0,0.0,78,0.00,,SKC,0.00,VWS V13.00,2013-01-20 03:20:00,
2013-01-19 22:25:00,42.5,36.1,30.24,ENE,65,0.0,0.0,78,0.00,,SKC,0.00,VWS V13.00,2013-01-20 03:25:00,
2013-01-19 22:30:00,42.5,36.1,30.24,ENE,65,0.0,0.0,78,0.00,,SKC,0.00,VWS V13.00,2013-01-20 03:30:00,
2013-01-19 22:36:00,42.5,36.1,30.23,ENE,65,0.0,0.0,78,0.00,,SKC,0.00,VWS V13.00,2013-01-20 03:36:00,
2013-01-19 22:40:00,42.4,36.0,30.23,ENE,65,0.0,0.0,78,0.00,,SKC,0.00,VWS V13.00,2013-01-20 03:40:00,
2013-01-19 22:46:00,42.3,35.9,30.23,ENE,65,0.0,0.0,78,0.00,,SKC,0.00,VWS V13.00,2013-01-20 03:46:00,
2013-01-19 22:51:00,42.3,35.9,30.23,ENE,65,0.0,0.0,78,0.00,,SKC,0.00,VWS V13.00,2013-01-20 03:51:00,
2013-01-19 22:56:00,42.3,35.9,30.22,ENE,65,0.0,0.0,78,0.00,,SKC,0.00,VWS V13.00,2013-01-20 03:56:00,
2013-01-19 23:01:00,42.3,36.3,30.22,ENE,65,0.0,0.0,79,0.00,,SKC,0.00,VWS V13.00,2013-01-20 04:01:00,
2013-01-19 23:07:00,42.2,36.2,30.22,ENE,65,0.0,0.0,79,0.00,,SKC,0.00,VWS V13.00,2013-01-20 04:07:00,
2013-01-19 23:12:00,42.2,36.2,30.22,ENE,65,0.0,0.0,79,0.00,,SKC,0.00,VWS V13.00,2013-01-20 04:12:00,
2013-01-19 23:17:00,42.2,36.2,30.21,ENE,65,0.0,0.0,79,0.00,,SKC,0.00,VWS V13.00,2013-01-20 04:17:00,
2013-01-19 23:22:00,42.2,36.2,30.21,ENE,65,0.0,0.0,79,0.00,,SKC,0.00,VWS V13.00,2013-01-20 04:22:00,
2013-01-19 23:28:00,42.0,36.0,30.21,ENE,65,0.0,0.0,79,0.00,,SKC,0.00,VWS V13.00,2013-01-20 04:28:00,
2013-01-19 23:33:00,41.9,35.9,30.21,ENE,65,0.0,0.0,79,0.00,,SKC,0.00,VWS V13.00,2013-01-20 04:33:00,
2013-01-19 23:38:00,41.9,35.9,30.21,ENE,65,1.0,1.0,79,0.00,,SKC,0.00,VWS V13.00,2013-01-20 04:38:00,
2013-01-19 23:43:00,41.8,35.8,30.20,ENE,65,0.0,0.0,79,0.00,,SKC,0.00,VWS V13.00,2013-01-20 04:43:00,
2013-01-19 23:48:00,41.8,35.8,30.20,ENE,65,0.0,0.0,79,0.00,,SKC,0.00,VWS V13.00,2013-01-20 04:48:00,
2013-01-19 23:53:00,41.7,35.7,30.20,NNW,344,3.0,3.0,79,0.00,,SKC,0.00,VWS V13.00,2013-01-20 04:53:00,
2013-01-19 23:58:00,41.7,35.7,30.20,WNW,302,3.0,3.0,79,0.00,,SKC,0.00,VWS V13.00,2013-01-20 04:58:00,